Time;durP1;ratioP1;P1;durP2;ratioP2;P2;SDS_P1;SDS_P2;PMS_P1;PMS_P2;Temp;Humidity;BMP_temperature;BMP_pressure;BME280_temperature;BME280_humidity;BME280_pressure;Samples;Min_cycle;Max_cycle;Signal;HPM_P1;HPM_P2
2022/12/14 00:00:50;;;;;;;;;;;;;;;3.15;79.50;99984.81;7345056;19;19934;-66
2022/12/14 00:03:17;;;;;;;;;;;;;;;3.16;80.18;99977.84;7346605;19;19915;-65
2022/12/14 00:05:44;;;;;;;;;;;;;;;3.16;80.18;99980.47;7347732;19;20335;-67
2022/12/14 00:08:11;;;;;;;;;;;;;;;3.16;80.18;99976.09;7352700;19;19930;-65
2022/12/14 00:10:39;;;;;;;;;;;;;;;3.18;78.68;99979.41;7350454;19;20311;-66
2022/12/14 00:13:06;;;;;;;;;;;;;;;3.21;79.06;99979.13;7349824;19;19911;-65
2022/12/14 00:15:35;;;;;;;;;;;;;;;3.21;79.39;99971.34;7350106;19;20257;-65
2022/12/14 00:18:02;;;;;;;;;;;;;;;3.24;79.90;99965.06;7352604;19;19951;-65
2022/12/14 00:20:29;;;;;;;;;;;;;;;3.28;79.59;99969.06;7350000;19;20287;-66
2022/12/14 00:22:56;;;;;;;;;;;;;;;3.33;77.78;99972.09;7346811;19;20376;-66
2022/12/14 00:25:23;;;;;;;;;;;;;;;3.31;77.07;99966.19;7351676;19;19926;-66
2022/12/14 00:27:50;;;;;;;;;;;;;;;3.23;77.13;99958.22;7346002;19;19922;-66
2022/12/14 00:30:18;;;;;;;;;;;;;;;3.19;78.38;99954.25;7349295;19;20491;-65
2022/12/14 00:32:46;;;;;;;;;;;;;;;3.18;77.44;99953.41;7345253;19;21207;-65
2022/12/14 00:35:15;;;;;;;;;;;;;;;3.10;77.41;99957.59;7351522;19;19914;-67
2022/12/14 00:37:42;;;;;;;;;;;;;;;3.09;77.96;99959.38;7344909;19;19926;-66
2022/12/14 00:40:14;;;;;;;;;;;;;;;3.08;78.52;99949.94;7349831;19;19926;-65
2022/12/14 00:42:41;;;;;;;;;;;;;;;3.09;78.34;99953.34;7345364;19;19927;-65
2022/12/14 00:45:08;;;;;;;;;;;;;;;3.10;79.22;99945.41;7348538;19;20355;-65
2022/12/14 00:47:35;;;;;;;;;;;;;;;3.14;78.71;99938.19;7346248;19;20059;-67
2022/12/14 00:50:06;;;;;;;;;;;;;;;3.13;79.30;99945.19;7352602;19;20516;-66
2022/12/14 00:52:33;;;;;;;;;;;;;;;3.13;79.55;99939.16;7345718;19;19963;-65
2022/12/14 00:55:00;;;;;;;;;;;;;;;3.09;78.83;99929.97;7352587;19;19926;-66
2022/12/14 00:57:29;;;;;;;;;;;;;;;3.12;78.62;99938.31;7346698;19;19991;-65
2022/12/14 00:59:56;;;;;;;;;;;;;;;3.11;79.32;99935.84;7349420;19;20285;-67
2022/12/14 01:02:22;;;;;;;;;;;;;;;3.13;79.08;99932.19;7346823;19;20019;-67
2022/12/14 01:04:50;;;;;;;;;;;;;;;3.13;79.15;99937.38;7352608;19;19923;-65
2022/12/14 01:07:16;;;;;;;;;;;;;;;3.14;79.06;99939.03;7346404;19;20112;-65
2022/12/14 01:09:43;;;;;;;;;;;;;;;3.22;77.72;99928.81;7353504;19;20409;-66
2022/12/14 01:12:11;;;;;;;;;;;;;;;3.20;78.33;99940.31;7351697;19;20089;-65
2022/12/14 01:14:39;;;;;;;;;;;;;;;3.20;78.81;99937.69;7354548;19;20855;-67
2022/12/14 01:17:06;;;;;;;;;;;;;;;3.18;78.67;99930.03;7351427;19;20330;-65
2022/12/14 01:19:33;;;;;;;;;;;;;;;3.19;78.54;99931.69;7353005;19;19923;-65
2022/12/14 01:22:00;;;;;;;;;;;;;;;3.21;79.39;99932.34;7347092;19;19927;-66
2022/12/14 01:24:27;;;;;;;;;;;;;;;3.18;79.30;99931.78;7352621;19;19947;-66
2022/12/14 01:26:54;;;;;;;;;;;;;;;3.18;79.44;99926.59;7352854;19;19935;-65
2022/12/14 01:29:21;;;;;;;;;;;;;;;3.20;81.15;99937.69;7350115;19;19926;-65
2022/12/14 01:31:48;;;;;;;;;;;;;;;3.24;82.11;99926.09;7347128;19;19930;-64
2022/12/14 01:34:15;;;;;;;;;;;;;;;3.24;81.01;99924.31;7351126;19;19927;-66
2022/12/14 01:36:42;;;;;;;;;;;;;;;3.25;80.53;99927.75;7349907;19;19940;-66
2022/12/14 01:39:12;;;;;;;;;;;;;;;3.28;81.05;99933.50;7352847;19;19998;-67
2022/12/14 01:41:42;;;;;;;;;;;;;;;3.29;79.71;99922.16;7348887;19;20291;-65
2022/12/14 01:44:09;;;;;;;;;;;;;;;3.30;79.26;99925.59;7352702;19;19926;-65
2022/12/14 01:46:37;;;;;;;;;;;;;;;3.26;79.05;99929.38;7351684;19;20166;-66
2022/12/14 01:49:11;;;;;;;;;;;;;;;3.25;78.93;99935.53;7353597;19;20467;-65
2022/12/14 01:51:41;;;;;;;;;;;;;;;3.25;78.84;99938.13;7348287;19;20604;-66
2022/12/14 01:54:11;;;;;;;;;;;;;;;3.26;78.62;99935.38;7351959;19;19957;-66
2022/12/14 01:56:40;;;;;;;;;;;;;;;3.31;77.56;99938.44;7350496;19;21624;-67
2022/12/14 01:59:11;;;;;;;;;;;;;;;3.26;77.84;99940.59;7352278;19;20438;-66
2022/12/14 02:01:37;;;;;;;;;;;;;;;3.25;77.28;99936.34;7352482;19;19923;-66
2022/12/14 02:04:05;;;;;;;;;;;;;;;3.21;77.95;99941.91;7355387;19;20184;-64
2022/12/14 02:06:35;;;;;;;;;;;;;;;3.20;77.28;99937.69;7352582;19;19922;-66
2022/12/14 02:09:04;;;;;;;;;;;;;;;3.18;77.71;99939.59;7353228;19;19953;-64
2022/12/14 02:11:40;;;;;;;;;;;;;;;3.15;78.69;99934.66;7355057;19;19927;-65
2022/12/14 02:14:07;;;;;;;;;;;;;;;3.15;78.19;99940.66;7356135;19;20552;-66
2022/12/14 02:16:34;;;;;;;;;;;;;;;3.13;78.06;99947.78;7351474;19;20735;-68
2022/12/14 02:19:01;;;;;;;;;;;;;;;3.13;77.67;99931.34;7353927;19;19938;-66
2022/12/14 02:21:29;;;;;;;;;;;;;;;3.12;77.57;99938.31;7348987;19;19923;-65
2022/12/14 02:23:56;;;;;;;;;;;;;;;3.08;77.30;99938.72;7354126;19;19938;-66
2022/12/14 02:26:33;;;;;;;;;;;;;;;3.04;77.65;99934.72;7354128;19;19923;-65
2022/12/14 02:29:10;;;;;;;;;;;;;;;2.98;77.80;99938.66;7354598;19;19915;-66
2022/12/14 02:31:47;;;;;;;;;;;;;;;2.95;80.16;99937.09;7346376;19;20436;-68
2022/12/14 02:34:30;;;;;;;;;;;;;;;2.97;79.82;99942.19;7352595;19;19915;-66
2022/12/14 02:37:07;;;;;;;;;;;;;;;2.96;79.90;99951.75;7353764;19;20305;-65
2022/12/14 02:39:44;;;;;;;;;;;;;;;2.97;79.90;99944.78;7354541;19;20579;-65
2022/12/14 02:42:14;;;;;;;;;;;;;;;3.00;78.65;99932.34;7352175;19;19926;-65
2022/12/14 02:44:50;;;;;;;;;;;;;;;2.98;78.36;99933.44;7354295;19;20300;-65
2022/12/14 02:47:27;;;;;;;;;;;;;;;2.99;78.81;99935.94;7351626;19;19926;-66
2022/12/14 02:50:03;;;;;;;;;;;;;;;3.04;78.72;99940.75;7353915;19;20324;-65
2022/12/14 02:52:29;;;;;;;;;;;;;;;3.08;77.81;99928.31;7346530;19;19923;-64
2022/12/14 02:55:02;;;;;;;;;;;;;;;3.06;77.84;99938.00;7355013;19;19919;-66
2022/12/14 02:57:41;;;;;;;;;;;;;;;3.04;78.03;99937.31;7352701;19;19926;-66
2022/12/14 03:00:08;;;;;;;;;;;;;;;3.06;77.98;99938.81;7353700;19;19945;-65
2022/12/14 03:02:39;;;;;;;;;;;;;;;3.05;77.40;99947.56;7350912;19;19958;-66
2022/12/14 03:05:06;;;;;;;;;;;;;;;3.06;77.88;99951.81;7351473;19;20382;-66
2022/12/14 03:07:39;;;;;;;;;;;;;;;3.05;77.59;99950.16;7346621;19;19919;-66
2022/12/14 03:10:24;;;;;;;;;;;;;;;3.04;78.24;99945.13;7350480;19;20750;-66
2022/12/14 03:12:59;;;;;;;;;;;;;;;3.05;78.23;99933.78;7348339;19;19948;-66
2022/12/14 03:15:28;;;;;;;;;;;;;;;3.04;77.45;99934.72;7351390;19;20407;-66
2022/12/14 03:17:59;;;;;;;;;;;;;;;3.04;77.38;99934.72;7348959;19;19982;-65
2022/12/14 03:20:28;;;;;;;;;;;;;;;3.00;76.73;99932.34;7351003;19;20194;-65
2022/12/14 03:23:18;;;;;;;;;;;;;;;2.97;77.59;99937.00;7343778;19;19937;-65
2022/12/14 03:26:05;;;;;;;;;;;;;;;2.96;77.41;99928.38;7348896;19;19923;-64
2022/12/14 03:28:32;;;;;;;;;;;;;;;2.91;77.03;99914.13;7348308;19;20573;-64
2022/12/14 03:31:07;;;;;;;;;;;;;;;2.89;77.73;99922.06;7343327;19;19919;-66
2022/12/14 03:33:38;;;;;;;;;;;;;;;2.88;78.30;99911.78;7345103;19;20415;-67
2022/12/14 03:36:09;;;;;;;;;;;;;;;2.89;78.71;99926.44;7317003;19;20616;-65
2022/12/14 03:38:43;;;;;;;;;;;;;;;2.95;77.31;99915.50;7347041;19;19918;-64
2022/12/14 03:41:14;;;;;;;;;;;;;;;2.94;77.57;99921.69;7347423;19;19931;-64
2022/12/14 03:43:43;;;;;;;;;;;;;;;2.95;78.12;99911.13;7345786;19;20309;-65
2022/12/14 03:46:27;;;;;;;;;;;;;;;2.94;78.00;99906.91;7348089;19;20029;-65
2022/12/14 03:48:58;;;;;;;;;;;;;;;2.98;77.25;99912.66;7348931;19;19957;-65
2022/12/14 03:51:39;;;;;;;;;;;;;;;2.95;77.31;99908.53;7344902;19;19922;-65
2022/12/14 03:54:11;;;;;;;;;;;;;;;2.91;77.91;99914.94;7346639;19;19922;-66
2022/12/14 03:56:38;;;;;;;;;;;;;;;2.91;78.01;99914.13;7347239;19;21521;-66
2022/12/14 03:59:11;;;;;;;;;;;;;;;2.94;77.06;99916.47;7348363;19;19918;-66
2022/12/14 04:01:37;;;;;;;;;;;;;;;2.91;76.79;99904.56;7350926;19;19923;-65
2022/12/14 04:04:14;;;;;;;;;;;;;;;2.91;76.99;99907.16;7351719;19;19966;-65
2022/12/14 04:06:45;;;;;;;;;;;;;;;2.90;76.94;99910.69;7347890;19;19937;-65
2022/12/14 04:09:11;;;;;;;;;;;;;;;2.87;76.54;99905.75;7352062;19;19933;-65
2022/12/14 04:20:13;;;;;;;;;;;;;;;2.80;78.20;99924.56;7347781;19;20082;-65
2022/12/14 04:22:43;;;;;;;;;;;;;;;2.79;78.75;99923.75;7351426;19;19923;-64
2022/12/14 04:31:27;;;;;;;;;;;;;;;2.81;76.92;99941.78;7345811;19;19911;-65
2022/12/14 04:33:57;;;;;;;;;;;;;;;2.78;77.67;99944.66;7347594;19;19959;-65
2022/12/14 04:36:27;;;;;;;;;;;;;;;2.72;77.29;99943.38;7346945;19;19939;-66
2022/12/14 04:38:57;;;;;;;;;;;;;;;2.67;77.39;99947.28;7349036;19;19919;-65
2022/12/14 04:41:27;;;;;;;;;;;;;;;2.60;77.97;99936.56;7348835;19;20011;-65
2022/12/14 04:43:57;;;;;;;;;;;;;;;2.58;77.97;99936.72;7349316;19;20704;-65
2022/12/14 04:46:26;;;;;;;;;;;;;;;2.52;78.24;99938.97;7350503;19;19918;-65
2022/12/14 04:48:56;;;;;;;;;;;;;;;2.48;78.27;99937.59;7350449;19;19957;-65
2022/12/14 04:51:35;;;;;;;;;;;;;;;2.43;79.10;99940.56;7346185;19;19914;-65
2022/12/14 04:54:08;;;;;;;;;;;;;;;2.44;78.98;99947.38;7352764;19;20240;-66
2022/12/14 04:56:43;;;;;;;;;;;;;;;2.38;79.07;99934.06;7350312;19;19934;-67
2022/12/14 04:59:09;;;;;;;;;;;;;;;2.37;79.98;99935.84;7352002;19;19919;-66
2022/12/14 05:01:36;;;;;;;;;;;;;;;2.35;80.46;99929.94;7346013;19;19927;-67
2022/12/14 05:04:12;;;;;;;;;;;;;;;2.34;80.03;99933.47;7346509;19;19915;-66
2022/12/14 05:06:53;;;;;;;;;;;;;;;2.35;80.20;99939.50;7343287;19;20037;-67
2022/12/14 05:09:37;;;;;;;;;;;;;;;2.32;80.19;99934.56;7346333;19;19918;-65
2022/12/14 05:12:13;;;;;;;;;;;;;;;2.27;80.33;99931.50;7347649;19;19918;-66
2022/12/14 05:14:48;;;;;;;;;;;;;;;2.26;81.27;99925.50;7345889;19;19922;-65
2022/12/14 05:17:15;;;;;;;;;;;;;;;2.26;81.20;99922.06;7347888;19;19927;-66
2022/12/14 05:19:45;;;;;;;;;;;;;;;2.26;81.47;99924.66;7341803;19;20501;-65
2022/12/14 05:22:14;;;;;;;;;;;;;;;2.26;81.35;99927.25;7347253;19;20512;-66
2022/12/14 05:24:41;;;;;;;;;;;;;;;2.25;81.66;99912.63;7346604;19;21756;-67
2022/12/14 05:27:08;;;;;;;;;;;;;;;2.22;81.90;99916.31;7348120;19;19923;-67
2022/12/14 05:29:35;;;;;;;;;;;;;;;2.22;82.91;99908.53;7346277;19;20691;-65
2022/12/14 05:32:02;;;;;;;;;;;;;;;2.26;82.63;99906.50;7340662;19;20011;-66
2022/12/14 05:34:29;;;;;;;;;;;;;;;2.23;81.88;99909.34;7339075;19;19921;-65
2022/12/14 05:36:57;;;;;;;;;;;;;;;2.20;82.58;99912.19;7342528;19;20113;-67
2022/12/14 05:39:23;;;;;;;;;;;;;;;2.19;82.64;99918.31;7344072;19;19915;-66
2022/12/14 05:41:52;;;;;;;;;;;;;;;2.19;82.67;99920.91;7345186;19;19926;-65
2022/12/14 05:44:19;;;;;;;;;;;;;;;2.19;82.65;99921.72;7344984;19;20244;-65
2022/12/14 05:46:45;;;;;;;;;;;;;;;2.19;82.91;99933.88;7342820;19;19933;-65
2022/12/14 05:49:12;;;;;;;;;;;;;;;2.12;82.10;99931.78;7343984;19;19926;-66
2022/12/14 05:51:39;;;;;;;;;;;;;;;2.09;82.83;99934.59;7343331;19;20155;-66
2022/12/14 05:54:06;;;;;;;;;;;;;;;2.08;82.87;99934.75;7349690;19;21461;-64
2022/12/14 05:56:32;;;;;;;;;;;;;;;2.02;82.08;99927.44;7350967;19;20354;-66
2022/12/14 05:58:59;;;;;;;;;;;;;;;1.99;82.55;99932.84;7355270;19;19922;-66
2022/12/14 06:01:26;;;;;;;;;;;;;;;1.98;82.73;99936.41;7351574;19;19918;-67
2022/12/14 06:03:53;;;;;;;;;;;;;;;1.98;83.84;99944.19;7353129;19;19944;-65
2022/12/14 06:06:20;;;;;;;;;;;;;;;1.97;82.93;99934.75;7352604;19;19927;-65
2022/12/14 06:08:47;;;;;;;;;;;;;;;1.92;83.02;99940.31;7353164;19;19926;-65
2022/12/14 06:11:19;;;;;;;;;;;;;;;1.86;83.88;99937.38;7353868;19;20271;-66
2022/12/14 06:13:46;;;;;;;;;;;;;;;1.83;84.26;99943.59;7356322;19;19919;-67
2022/12/14 06:16:13;;;;;;;;;;;;;;;1.80;84.29;99940.44;7354064;19;19927;-67
2022/12/14 06:18:44;;;;;;;;;;;;;;;1.83;83.71;99938.41;7356647;19;20506;-66
2022/12/14 06:21:18;;;;;;;;;;;;;;;1.82;84.10;99941.16;7349436;19;19923;-65
2022/12/14 06:23:45;;;;;;;;;;;;;;;1.83;84.30;99937.63;7353963;19;20005;-65
2022/12/14 06:26:12;;;;;;;;;;;;;;;1.83;84.87;99938.41;7353530;19;20290;-67
2022/12/14 06:28:39;;;;;;;;;;;;;;;1.82;84.90;99941.97;7353415;19;19923;-67
2022/12/14 06:31:20;;;;;;;;;;;;;;;1.86;83.86;99955.53;7352424;19;19937;-65
2022/12/14 06:33:46;;;;;;;;;;;;;;;1.88;83.77;99945.88;7350363;19;19982;-70
2022/12/14 06:36:17;;;;;;;;;;;;;;;1.84;84.09;99947.03;7347333;19;19935;-65
2022/12/14 06:38:44;;;;;;;;;;;;;;;1.78;83.83;99950.91;7353931;19;19933;-65
2022/12/14 06:41:14;;;;;;;;;;;;;;;1.74;84.24;99949.50;7354046;19;19922;-65
2022/12/14 06:43:41;;;;;;;;;;;;;;;1.77;84.43;99951.88;7352034;19;20277;-65
2022/12/14 06:46:08;;;;;;;;;;;;;;;1.79;84.24;99947.38;7353482;19;20761;-66
2022/12/14 06:48:41;;;;;;;;;;;;;;;1.79;84.58;99952.56;7354528;19;19938;-65
2022/12/14 06:51:17;;;;;;;;;;;;;;;1.82;85.01;99957.53;7350673;19;20219;-67
2022/12/14 06:53:45;;;;;;;;;;;;;;;1.81;85.86;99961.06;7355975;19;19927;-66
2022/12/14 06:56:13;;;;;;;;;;;;;;;1.88;83.67;99966.59;7352673;19;20532;-66
2022/12/14 06:58:40;;;;;;;;;;;;;;;1.87;83.30;99970.13;7352205;19;20058;-66
2022/12/14 07:01:12;;;;;;;;;;;;;;;1.85;83.32;99964.22;7348005;19;19922;-65
2022/12/14 07:03:40;;;;;;;;;;;;;;;1.79;83.61;99962.09;7347469;19;20331;-65
2022/12/14 07:06:10;;;;;;;;;;;;;;;1.77;83.28;99971.78;7346761;19;20303;-65
2022/12/14 07:08:37;;;;;;;;;;;;;;;1.76;83.28;99976.16;7349025;19;19923;-66
2022/12/14 07:11:14;;;;;;;;;;;;;;;1.77;83.31;99983.00;7347918;19;20369;-65
2022/12/14 07:13:41;;;;;;;;;;;;;;;1.80;82.56;99982.75;7350690;19;19915;-65
2022/12/14 07:16:15;;;;;;;;;;;;;;;1.81;83.09;99974.03;7349633;19;19930;-66
2022/12/14 07:18:42;;;;;;;;;;;;;;;1.81;82.94;99971.44;7349210;19;20318;-66
2022/12/14 07:21:17;;;;;;;;;;;;;;;1.82;83.04;99980.03;7346492;19;19931;-66
2022/12/14 07:23:44;;;;;;;;;;;;;;;1.79;82.81;99982.84;7345409;19;20239;-65
2022/12/14 07:26:13;;;;;;;;;;;;;;;1.75;82.67;99987.47;7348469;19;20370;-65
2022/12/14 07:28:40;;;;;;;;;;;;;;;1.76;82.53;99983.94;7352322;19;20312;-66
2022/12/14 07:31:16;;;;;;;;;;;;;;;1.81;82.70;99989.59;7347620;19;20372;-66
2022/12/14 07:33:43;;;;;;;;;;;;;;;1.87;80.73;99993.47;7348629;19;19926;-66
2022/12/14 07:36:11;;;;;;;;;;;;;;;1.87;80.98;99981.34;7340805;19;19949;-67
2022/12/14 07:38:39;;;;;;;;;;;;;;;1.93;79.92;99987.81;7343673;19;19919;-65
2022/12/14 07:41:18;;;;;;;;;;;;;;;1.87;79.87;99973.56;7345751;19;19937;-65
2022/12/14 07:43:49;;;;;;;;;;;;;;;1.82;80.35;99974.84;7346778;19;19911;-65
2022/12/14 07:46:18;;;;;;;;;;;;;;;1.81;80.73;99997.38;7346691;19;19933;-65
2022/12/14 07:48:46;;;;;;;;;;;;;;;1.76;80.48;99986.53;7333237;19;19907;-65
2022/12/14 07:51:21;;;;;;;;;;;;;;;1.80;79.87;99990.53;7343924;19;19927;-67
2022/12/14 07:53:48;;;;;;;;;;;;;;;1.82;81.86;99988.66;7349110;19;19929;-66
2022/12/14 07:56:17;;;;;;;;;;;;;;;1.83;79.62;99992.06;7347358;19;19915;-68
2022/12/14 07:58:44;;;;;;;;;;;;;;;1.79;78.92;99988.03;7348477;19;20277;-67
2022/12/14 08:01:13;;;;;;;;;;;;;;;1.73;78.63;100003.13;7350413;19;19923;-65
2022/12/14 08:03:41;;;;;;;;;;;;;;;1.68;79.04;99999.22;7350357;19;20704;-67
2022/12/14 08:06:09;;;;;;;;;;;;;;;1.70;79.11;100008.56;7346696;19;19923;-66
2022/12/14 08:08:36;;;;;;;;;;;;;;;1.70;78.97;100005.97;7350399;19;19919;-65
2022/12/14 08:11:04;;;;;;;;;;;;;;;1.70;79.42;100010.31;7351390;19;20399;-66
2022/12/14 08:13:43;;;;;;;;;;;;;;;1.73;79.89;100010.91;7350466;19;20581;-66
2022/12/14 08:16:14;;;;;;;;;;;;;;;1.75;79.46;100012.56;7348704;19;20188;-65
2022/12/14 08:18:44;;;;;;;;;;;;;;;1.79;78.95;100021.75;7350391;19;19930;-66
2022/12/14 08:21:22;;;;;;;;;;;;;;;1.82;78.03;100021.53;7345534;19;19930;-65
2022/12/14 08:23:49;;;;;;;;;;;;;;;1.83;78.53;100020.59;7350953;19;19922;-65
2022/12/14 08:26:17;;;;;;;;;;;;;;;1.86;78.32;100022.94;7351087;19;19919;-67
2022/12/14 08:28:44;;;;;;;;;;;;;;;1.88;78.21;100029.63;7350773;19;19942;-65
2022/12/14 08:31:19;;;;;;;;;;;;;;;1.90;79.27;100037.31;7350547;19;19955;-65
2022/12/14 08:33:47;;;;;;;;;;;;;;;1.96;78.42;100039.44;7349584;19;20180;-65
2022/12/14 08:36:15;;;;;;;;;;;;;;;1.96;78.24;100044.63;7340002;19;19919;-66
2022/12/14 08:38:42;;;;;;;;;;;;;;;1.94;78.64;100047.31;7347680;19;19919;-65
2022/12/14 08:41:22;;;;;;;;;;;;;;;1.96;77.48;100048.03;7350595;19;19930;-66
2022/12/14 08:43:50;;;;;;;;;;;;;;;1.96;78.44;100039.44;7350794;19;19926;-65
2022/12/14 08:46:17;;;;;;;;;;;;;;;2.02;78.04;100046.75;7349351;19;19941;-66
2022/12/14 08:48:44;;;;;;;;;;;;;;;2.01;77.09;100056.31;7349963;19;19930;-66
2022/12/14 08:51:11;;;;;;;;;;;;;;;2.01;77.60;100058.91;7346628;19;19931;-65
2022/12/14 08:53:39;;;;;;;;;;;;;;;2.06;76.89;100050.75;7350530;19;20919;-67
2022/12/14 08:56:07;;;;;;;;;;;;;;;1.97;77.02;100056.66;7347490;19;20343;-68
2022/12/14 08:58:35;;;;;;;;;;;;;;;1.96;77.83;100055.00;7347839;19;19926;-65
2022/12/14 09:01:14;;;;;;;;;;;;;;;1.98;78.46;100048.75;7347637;19;19930;-67
2022/12/14 09:03:43;;;;;;;;;;;;;;;2.07;77.20;100055.84;7345123;19;20230;-65
2022/12/14 09:06:11;;;;;;;;;;;;;;;2.10;77.49;100057.34;7344081;19;19918;-65
2022/12/14 09:08:38;;;;;;;;;;;;;;;2.13;76.54;100063.13;7346241;19;19918;-66
2022/12/14 09:11:05;;;;;;;;;;;;;;;2.09;76.05;100061.72;7346434;19;20029;-65
2022/12/14 09:13:33;;;;;;;;;;;;;;;2.09;77.30;100072.09;7345885;19;19929;-65
2022/12/14 09:16:04;;;;;;;;;;;;;;;2.07;77.40;100074.00;7347672;19;19922;-66
2022/12/14 09:18:33;;;;;;;;;;;;;;;2.11;76.34;100082.34;7345926;19;19957;-65
2022/12/14 09:20:59;;;;;;;;;;;;;;;2.09;77.00;100085.06;7342036;19;19927;-66
2022/12/14 09:23:27;;;;;;;;;;;;;;;2.15;76.44;100074.22;7344400;19;19919;-66
2022/12/14 09:26:02;;;;;;;;;;;;;;;2.19;76.68;100077.41;7348028;19;19915;-66
2022/12/14 09:28:30;;;;;;;;;;;;;;;2.20;76.96;100071.25;7353234;19;19918;-66
2022/12/14 09:30:58;;;;;;;;;;;;;;;2.24;76.07;100083.06;7352015;19;19918;-66
2022/12/14 09:33:25;;;;;;;;;;;;;;;2.32;76.04;100078.13;7350071;19;19919;-66
2022/12/14 09:35:58;;;;;;;;;;;;;;;2.36;75.59;100083.88;7347958;19;19918;-65
2022/12/14 09:38:24;;;;;;;;;;;;;;;2.40;74.95;100093.91;7346718;19;19911;-66
2022/12/14 09:40:56;;;;;;;;;;;;;;;2.41;75.17;100100.75;7352331;19;19949;-66
2022/12/14 09:43:42;;;;;;;;;;;;;;;2.42;74.36;100105.00;7351827;19;19931;-66
2022/12/14 09:46:12;;;;;;;;;;;;;;;2.39;74.05;100109.59;7351289;19;19986;-66
2022/12/14 09:48:40;;;;;;;;;;;;;;;2.38;74.00;100113.16;7352465;19;20604;-67
2022/12/14 09:51:16;;;;;;;;;;;;;;;2.40;74.95;100119.84;7353149;19;19935;-67
2022/12/14 09:53:45;;;;;;;;;;;;;;;2.46;73.90;100123.75;7357937;19;20865;-65
2022/12/14 09:56:16;;;;;;;;;;;;;;;2.41;73.73;100124.09;7356963;19;19926;-65
2022/12/14 09:58:49;;;;;;;;;;;;;;;2.46;75.10;100128.94;7355881;19;20027;-65
2022/12/14 10:01:22;;;;;;;;;;;;;;;2.52;74.82;100134.50;7352536;19;19927;-67
2022/12/14 10:04:01;;;;;;;;;;;;;;;2.60;72.23;100136.47;7352562;19;19930;-65
2022/12/14 10:06:31;;;;;;;;;;;;;;;2.62;73.01;100141.56;7352547;19;19959;-66
2022/12/14 10:09:17;;;;;;;;;;;;;;;2.64;72.24;100140.50;7352890;19;19923;-65
2022/12/14 10:11:44;;;;;;;;;;;;;;;2.66;72.07;100140.38;7356263;19;20536;-66
2022/12/14 10:14:10;;;;;;;;;;;;;;;2.70;72.71;100139.19;7355759;19;19969;-65
2022/12/14 10:16:45;;;;;;;;;;;;;;;2.73;72.40;100141.56;7353706;19;19957;-65
2022/12/14 10:19:36;;;;;;;;;;;;;;;2.71;72.27;100135.66;7355097;19;21613;-66
2022/12/14 10:22:14;;;;;;;;;;;;;;;2.75;72.37;100142.25;7352820;19;19930;-65
2022/12/14 10:24:43;;;;;;;;;;;;;;;2.81;71.85;100144.38;7353274;19;19915;-66
2022/12/14 10:27:16;;;;;;;;;;;;;;;2.80;71.86;100138.34;7356245;19;20018;-64
2022/12/14 10:29:46;;;;;;;;;;;;;;;2.81;70.74;100127.00;7354957;19;19919;-65
2022/12/14 10:32:31;;;;;;;;;;;;;;;2.81;70.92;100128.78;7353510;19;19911;-65
2022/12/14 10:35:00;;;;;;;;;;;;;;;2.78;72.31;100134.22;7353085;19;20082;-64
2022/12/14 10:37:38;;;;;;;;;;;;;;;2.81;71.70;100129.59;7350198;19;20825;-65
2022/12/14 10:40:08;;;;;;;;;;;;;;;2.82;71.62;100128.66;7352672;19;19941;-66
2022/12/14 10:43:03;;;;;;;;;;;;;;;2.82;71.69;100128.66;7354810;19;19941;-66
2022/12/14 10:45:46;;;;;;;;;;;;;;;2.84;71.17;100129.38;7350824;19;19959;-67
2022/12/14 10:48:25;;;;;;;;;;;;;;;2.86;71.45;100127.47;7351257;19;19927;-65
2022/12/14 10:51:00;;;;;;;;;;;;;;;2.84;70.64;100131.16;7350462;19;19977;-67
2022/12/14 10:53:38;;;;;;;;;;;;;;;2.82;71.25;100133.88;7349798;19;19923;-65
2022/12/14 10:56:12;;;;;;;;;;;;;;;2.80;71.28;100135.75;7348972;19;19926;-65
2022/12/14 10:58:39;;;;;;;;;;;;;;;2.83;71.68;100132.94;7350434;19;20141;-66
2022/12/14 11:01:16;;;;;;;;;;;;;;;2.85;70.95;100138.81;7352349;19;20196;-65
2022/12/14 11:03:50;;;;;;;;;;;;;;;2.89;70.27;100134.22;7351058;19;21181;-65
2022/12/14 11:06:17;;;;;;;;;;;;;;;2.91;71.32;100140.09;7347224;19;19927;-66
2022/12/14 11:08:46;;;;;;;;;;;;;;;2.90;70.60;100133.25;7351269;19;19927;-65
2022/12/14 11:11:15;;;;;;;;;;;;;;;2.96;71.41;100130.16;7349465;19;19921;-65
2022/12/14 11:14:05;;;;;;;;;;;;;;;3.03;69.79;100133.94;7348567;19;19945;-66
2022/12/14 11:16:37;;;;;;;;;;;;;;;3.07;70.33;100139.72;7345528;19;19923;-66
2022/12/14 11:19:15;;;;;;;;;;;;;;;3.03;69.81;100133.94;7347556;19;19931;-66
2022/12/14 11:21:43;;;;;;;;;;;;;;;3.03;70.45;100128.75;7344879;19;20361;-66
2022/12/14 11:24:26;;;;;;;;;;;;;;;3.07;69.84;100143.13;7346788;19;20354;-66
2022/12/14 11:26:57;;;;;;;;;;;;;;;3.12;69.65;100137.56;7347049;19;20279;-66
2022/12/14 11:29:29;;;;;;;;;;;;;;;3.15;69.87;100142.53;7346705;19;19922;-65
2022/12/14 11:31:56;;;;;;;;;;;;;;;3.16;69.79;100139.78;7342454;19;20144;-67
2022/12/14 11:34:37;;;;;;;;;;;;;;;3.19;69.92;100143.94;7345975;19;19915;-66
2022/12/14 11:37:10;;;;;;;;;;;;;;;3.22;68.82;100138.47;7345503;19;19949;-65
2022/12/14 11:39:38;;;;;;;;;;;;;;;3.24;69.36;100134.00;7340491;19;19937;-66
2022/12/14 11:42:05;;;;;;;;;;;;;;;3.22;69.06;100141.09;7346722;19;20373;-66
2022/12/14 11:44:37;;;;;;;;;;;;;;;3.21;69.49;100139.44;7342955;19;19930;-66
2022/12/14 11:47:05;;;;;;;;;;;;;;;3.22;69.71;100130.69;7348400;19;20479;-65
2022/12/14 11:49:33;;;;;;;;;;;;;;;3.23;69.50;100132.34;7349852;19;20365;-66
2022/12/14 11:52:03;;;;;;;;;;;;;;;3.24;69.66;100132.22;7348390;19;19923;-66
2022/12/14 11:54:30;;;;;;;;;;;;;;;3.29;70.47;100131.84;7351593;19;19926;-67
2022/12/14 11:57:03;;;;;;;;;;;;;;;3.33;69.80;100128.88;7347411;19;20124;-68
2022/12/14 11:59:56;;;;;;;;;;;;;;;3.39;68.72;100136.19;7347606;19;19963;-66
2022/12/14 12:02:31;;;;;;;;;;;;;;;3.46;68.42;100136.50;7348651;19;19915;-66
2022/12/14 12:05:03;;;;;;;;;;;;;;;3.48;69.26;100128.59;7345399;19;19929;-67
2022/12/14 12:07:32;;;;;;;;;;;;;;;3.47;69.34;100130.34;7350145;19;19927;-67
2022/12/14 12:10:00;;;;;;;;;;;;;;;3.49;68.78;100133.66;7349828;19;20196;-68
2022/12/14 12:12:26;;;;;;;;;;;;;;;3.55;68.96;100142.75;7348156;19;19918;-67
2022/12/14 12:14:55;;;;;;;;;;;;;;;3.56;68.41;100136.56;7349125;19;21214;-67
2022/12/14 12:17:45;;;;;;;;;;;;;;;3.59;69.13;100150.16;7350408;19;19923;-65
2022/12/14 12:20:18;;;;;;;;;;;;;;;3.58;69.29;100139.88;7346736;19;19929;-67
2022/12/14 12:22:48;;;;;;;;;;;;;;;3.55;68.85;100148.78;7352870;19;20275;-67
2022/12/14 12:25:16;;;;;;;;;;;;;;;3.54;68.23;100143.69;7350120;19;19927;-67
2022/12/14 12:27:58;;;;;;;;;;;;;;;3.53;69.36;100148.06;7348773;19;19918;-67
2022/12/14 12:30:29;;;;;;;;;;;;;;;3.57;69.53;100140.81;7350672;19;21036;-68
2022/12/14 12:33:01;;;;;;;;;;;;;;;3.58;70.27;100139.88;7349833;19;19926;-67
2022/12/14 12:35:35;;;;;;;;;;;;;;;3.61;70.18;100152.63;7345029;19;20546;-66
2022/12/14 12:38:13;;;;;;;;;;;;;;;3.66;69.89;100155.66;7353862;19;20040;-66
2022/12/14 12:40:40;;;;;;;;;;;;;;;3.69;70.00;100155.44;7347963;19;19954;-67
2022/12/14 12:43:17;;;;;;;;;;;;;;;3.69;70.24;100155.44;7354858;19;19990;-66
2022/12/14 12:45:46;;;;;;;;;;;;;;;3.73;69.28;100167.22;7347745;19;20266;-66
2022/12/14 12:48:16;;;;;;;;;;;;;;;3.74;68.55;100167.13;7349687;19;19918;-66
2022/12/14 12:50:46;;;;;;;;;;;;;;;3.72;68.31;100160.38;7341836;19;19939;-67
2022/12/14 12:53:20;;;;;;;;;;;;;;;3.69;68.33;100165.84;7345521;19;19957;-65
2022/12/14 12:55:49;;;;;;;;;;;;;;;3.71;67.83;100159.53;7343760;19;19922;-65
2022/12/14 12:58:21;;;;;;;;;;;;;;;3.71;68.83;100159.53;7344060;19;19942;-66
2022/12/14 13:00:54;;;;;;;;;;;;;;;3.69;68.80;100155.44;7343362;19;19919;-65
2022/12/14 13:03:26;;;;;;;;;;;;;;;3.70;69.50;100159.69;7346480;19;19945;-66
2022/12/14 13:05:56;;;;;;;;;;;;;;;3.72;69.30;100162.97;7341725;19;20576;-68
2022/12/14 13:08:26;;;;;;;;;;;;;;;3.68;69.42;100169.38;7347531;19;19953;-68
2022/12/14 13:10:57;;;;;;;;;;;;;;;3.65;69.34;100170.47;7344089;19;19910;-67
2022/12/14 13:13:55;;;;;;;;;;;;;;;3.65;70.40;100160.06;7344772;19;19919;-67
2022/12/14 13:16:29;;;;;;;;;;;;;;;3.65;70.13;100154.88;7341463;19;20492;-68
2022/12/14 13:19:04;;;;;;;;;;;;;;;3.68;69.79;100156.38;7346430;19;19922;-66
2022/12/14 13:21:51;;;;;;;;;;;;;;;3.70;69.78;100157.91;7341131;19;20372;-69
2022/12/14 13:24:22;;;;;;;;;;;;;;;3.71;69.98;100161.31;7344758;19;20350;-67
2022/12/14 13:26:49;;;;;;;;;;;;;;;3.73;69.99;100168.06;7344894;19;20376;-68